Time;durP1;ratioP1;P1;durP2;ratioP2;P2;SDS_P1;SDS_P2;PMS_P1;PMS_P2;Temp;Humidity;BMP_temperature;BMP_pressure;BME280_temperature;BME280_humidity;BME280_pressure;Samples;Min_cycle;Max_cycle;Signal;HPM_P1;HPM_P2
2022/07/12 00:02:01;;;;;;;12.70;11.40;;;;;;;;;;5051410;28;20413;-75
2022/07/12 00:04:27;;;;;;;12.50;11.30;;;;;;;;;;5051277;28;20416;-74
2022/07/12 00:06:53;;;;;;;14.13;12.73;;;;;;;;;;5051319;28;20438;-74
2022/07/12 00:09:19;;;;;;;14.27;12.87;;;;;;;;;;5051340;28;20412;-74
2022/07/12 00:11:45;;;;;;;14.97;13.47;;;;;;;;;;5051169;28;20409;-74
2022/07/12 00:14:11;;;;;;;13.30;12.00;;;;;;;;;;5050834;28;20488;-75
2022/07/12 00:16:37;;;;;;;12.00;10.73;;;;;;;;;;5051317;27;20424;-75
2022/07/12 00:19:03;;;;;;;12.90;11.60;;;;;;;;;;5050106;28;20409;-74
2022/07/12 00:21:29;;;;;;;12.70;11.20;;;;;;;;;;5051237;28;20743;-74
2022/07/12 00:23:55;;;;;;;11.67;10.47;;;;;;;;;;5050576;28;20396;-74
2022/07/12 00:26:21;;;;;;;12.33;11.17;;;;;;;;;;5050740;28;20544;-74
2022/07/12 00:28:47;;;;;;;12.00;10.63;;;;;;;;;;5050030;28;20754;-75
2022/07/12 00:31:13;;;;;;;12.20;10.13;;;;;;;;;;5050963;28;20415;-75
2022/07/12 00:33:39;;;;;;;12.10;10.90;;;;;;;;;;5050631;28;20456;-74
2022/07/12 00:36:06;;;;;;;10.70;9.70;;;;;;;;;;5050545;28;20516;-75
2022/07/12 00:38:32;;;;;;;10.50;9.50;;;;;;;;;;5049668;28;20416;-74
2022/07/12 00:40:58;;;;;;;10.97;9.77;;;;;;;;;;5051127;27;20488;-74
2022/07/12 00:43:24;;;;;;;12.40;9.33;;;;;;;;;;5050458;28;20951;-75
2022/07/12 00:45:50;;;;;;;13.13;10.70;;;;;;;;;;5050733;28;20444;-73
2022/07/12 00:48:17;;;;;;;11.60;10.37;;;;;;;;;;5050525;28;20424;-74
2022/07/12 00:50:44;;;;;;;11.10;10.00;;;;;;;;;;5050884;28;20413;-75
2022/07/12 00:53:10;;;;;;;10.80;9.73;;;;;;;;;;5050370;28;20535;-75
2022/07/12 00:55:36;;;;;;;11.70;9.50;;;;;;;;;;5050452;28;20467;-75
2022/07/12 00:58:02;;;;;;;12.50;9.33;;;;;;;;;;5050653;28;20500;-77
2022/07/12 01:00:29;;;;;;;10.47;9.37;;;;;;;;;;5050637;28;20438;-75
2022/07/12 01:02:56;;;;;;;10.93;9.83;;;;;;;;;;5050232;28;20503;-76
2022/07/12 01:05:22;;;;;;;10.43;8.60;;;;;;;;;;5050430;28;20451;-75
2022/07/12 01:07:49;;;;;;;10.10;9.10;;;;;;;;;;5050287;28;20468;-74
2022/07/12 01:10:15;;;;;;;11.93;10.73;;;;;;;;;;5050084;28;20437;-75
2022/07/12 01:12:42;;;;;;;11.93;9.37;;;;;;;;;;5050184;28;20415;-75
2022/07/12 01:15:09;;;;;;;13.13;9.30;;;;;;;;;;5049764;28;20479;-74
2022/07/12 01:17:35;;;;;;;10.20;9.10;;;;;;;;;;5050130;28;20409;-75
2022/07/12 01:20:01;;;;;;;11.03;9.93;;;;;;;;;;5049842;28;20405;-75
2022/07/12 01:22:30;;;;;;;10.37;9.37;;;;;;;;;;5049869;28;20405;-75
2022/07/12 01:24:56;;;;;;;10.57;9.50;;;;;;;;;;5049632;28;20412;-75
2022/07/12 01:27:22;;;;;;;12.00;9.67;;;;;;;;;;5050403;28;20413;-75
2022/07/12 01:29:48;;;;;;;10.93;9.43;;;;;;;;;;5050221;28;20412;-75
2022/07/12 01:32:26;;;;;;;10.10;9.10;;;;;;;;;;5049936;28;20559;-75
2022/07/12 01:34:55;;;;;;;10.63;9.10;;;;;;;;;;5049621;28;20456;-75
2022/07/12 01:37:25;;;;;;;11.93;8.63;;;;;;;;;;5049920;28;21010;-75
2022/07/12 01:39:52;;;;;;;9.70;8.80;;;;;;;;;;5049994;28;20443;-75
2022/07/12 01:42:18;;;;;;;9.40;8.50;;;;;;;;;;5050100;28;20870;-74
2022/07/12 01:44:44;;;;;;;8.90;8.00;;;;;;;;;;5049736;28;20836;-75
2022/07/12 01:47:11;;;;;;;9.60;8.70;;;;;;;;;;5050125;28;20508;-74
2022/07/12 01:49:37;;;;;;;9.53;8.63;;;;;;;;;;5049962;28;20473;-74
2022/07/12 01:52:03;;;;;;;8.17;7.47;;;;;;;;;;5050029;28;20938;-74
2022/07/12 01:54:29;;;;;;;8.83;7.60;;;;;;;;;;5049497;28;20474;-75
2022/07/12 01:56:55;;;;;;;8.90;8.10;;;;;;;;;;5049737;28;20436;-75
2022/07/12 01:59:22;;;;;;;8.57;7.73;;;;;;;;;;5049806;28;20409;-75
2022/07/12 02:01:48;;;;;;;9.43;8.47;;;;;;;;;;5049815;28;20412;-74
2022/07/12 02:04:17;;;;;;;9.40;8.50;;;;;;;;;;5049320;28;21017;-75
2022/07/12 02:06:44;;;;;;;8.83;7.97;;;;;;;;;;5049592;28;20835;-75
2022/07/12 02:09:10;;;;;;;8.90;8.10;;;;;;;;;;5049549;28;20408;-75
2022/07/12 02:11:36;;;;;;;8.07;7.37;;;;;;;;;;5049658;28;20409;-75
2022/07/12 02:14:02;;;;;;;8.80;7.50;;;;;;;;;;5049226;28;20413;-75
2022/07/12 02:16:28;;;;;;;9.23;8.33;;;;;;;;;;5049507;28;20480;-74
2022/07/12 02:18:54;;;;;;;9.17;8.23;;;;;;;;;;5050650;28;20964;-75
2022/07/12 02:21:20;;;;;;;8.43;7.60;;;;;;;;;;5051731;28;20424;-74
2022/07/12 02:23:46;;;;;;;8.73;7.87;;;;;;;;;;5052717;28;20415;-75
2022/07/12 02:26:12;;;;;;;8.87;8.07;;;;;;;;;;5051718;28;20439;-74
2022/07/12 02:28:38;;;;;;;9.17;8.30;;;;;;;;;;5053059;28;20424;-74
2022/07/12 02:31:05;;;;;;;12.37;8.77;;;;;;;;;;5052847;28;20464;-75
2022/07/12 02:33:31;;;;;;;9.77;8.87;;;;;;;;;;5052535;28;20519;-74
2022/07/12 02:35:57;;;;;;;7.90;7.10;;;;;;;;;;5052941;28;20493;-75
2022/07/12 02:38:23;;;;;;;8.70;7.17;;;;;;;;;;5051622;28;20448;-75
2022/07/12 02:40:55;;;;;;;9.30;8.00;;;;;;;;;;5052900;28;20413;-75
2022/07/12 02:43:24;;;;;;;8.50;7.60;;;;;;;;;;5052407;28;20453;-75
2022/07/12 02:45:51;;;;;;;9.90;8.90;;;;;;;;;;5052675;28;20432;-75
2022/07/12 02:48:17;;;;;;;9.50;8.53;;;;;;;;;;5051383;28;20820;-74
2022/07/12 02:50:43;;;;;;;9.37;8.37;;;;;;;;;;5052766;28;20503;-75
2022/07/12 02:53:10;;;;;;;9.97;9.00;;;;;;;;;;5052344;28;20783;-74
2022/07/12 02:55:36;;;;;;;9.50;8.50;;;;;;;;;;5051136;28;20472;-75
2022/07/12 02:58:02;;;;;;;9.10;7.90;;;;;;;;;;5052692;28;20464;-76
2022/07/12 03:00:29;;;;;;;9.30;8.40;;;;;;;;;;5052539;28;20436;-76
2022/07/12 03:02:55;;;;;;;9.40;8.50;;;;;;;;;;5052253;28;20508;-75
2022/07/12 03:05:21;;;;;;;9.20;8.07;;;;;;;;;;5052289;28;20419;-75
2022/07/12 03:07:47;;;;;;;9.53;8.60;;;;;;;;;;5052496;28;20467;-76
2022/07/12 03:10:13;;;;;;;8.63;7.73;;;;;;;;;;5052426;28;20450;-74
2022/07/12 03:12:39;;;;;;;10.13;9.03;;;;;;;;;;5052449;28;20416;-75
2022/07/12 03:15:08;;;;;;;9.50;8.30;;;;;;;;;;5051682;28;20467;-75
2022/07/12 03:17:34;;;;;;;10.07;8.83;;;;;;;;;;5052233;28;20409;-74
2022/07/12 03:20:00;;;;;;;8.80;7.90;;;;;;;;;;5052169;28;20790;-75
2022/07/12 03:22:26;;;;;;;9.37;8.50;;;;;;;;;;5050978;28;20431;-75
2022/07/12 03:24:53;;;;;;;8.93;8.03;;;;;;;;;;5051743;28;21004;-75
2022/07/12 03:27:19;;;;;;;10.50;9.50;;;;;;;;;;5052038;28;20417;-74
2022/07/12 03:29:45;;;;;;;9.77;8.83;;;;;;;;;;5050342;28;20794;-75
2022/07/12 03:32:11;;;;;;;11.80;8.50;;;;;;;;;;5051398;28;20912;-76
2022/07/12 03:34:37;;;;;;;9.87;8.87;;;;;;;;;;5051390;28;20468;-75
2022/07/12 03:37:04;;;;;;;11.07;8.80;;;;;;;;;;5052301;28;20469;-74
2022/07/12 03:39:30;;;;;;;9.83;8.90;;;;;;;;;;5051872;28;20408;-76
2022/07/12 03:41:56;;;;;;;10.20;9.10;;;;;;;;;;5051824;28;20416;-74
2022/07/12 03:44:22;;;;;;;10.87;9.03;;;;;;;;;;5051465;28;20468;-74
2022/07/12 03:46:48;;;;;;;10.17;9.20;;;;;;;;;;5051758;28;20439;-74
2022/07/12 03:49:15;;;;;;;14.30;8.97;;;;;;;;;;5051630;28;20408;-76
2022/07/12 03:51:41;;;;;;;10.33;9.10;;;;;;;;;;5051882;28;20443;-75
2022/07/12 03:54:07;;;;;;;8.50;7.70;;;;;;;;;;5051442;28;20420;-75
2022/07/12 03:59:19;;;;;;;9.47;8.37;;;;;;;;;;5051619;28;20395;-74
2022/07/12 04:01:45;;;;;;;10.70;8.67;;;;;;;;;;5051479;28;20479;-76
2022/07/12 04:04:11;;;;;;;8.80;7.90;;;;;;;;;;5051095;28;20393;-75
2022/07/12 04:06:38;;;;;;;10.00;8.90;;;;;;;;;;5049968;28;20433;-75
2022/07/12 04:09:05;;;;;;;9.07;8.17;;;;;;;;;;5051223;28;20835;-75
2022/07/12 04:11:34;;;;;;;9.50;8.60;;;;;;;;;;5051297;28;20375;-75
2022/07/12 04:14:00;;;;;;;10.50;8.67;;;;;;;;;;5051168;28;20519;-75
2022/07/12 04:16:27;;;;;;;9.63;8.73;;;;;;;;;;5051148;28;20846;-75
2022/07/12 04:18:54;;;;;;;9.90;8.83;;;;;;;;;;5051408;28;20415;-75
2022/07/12 04:21:20;;;;;;;11.30;8.97;;;;;;;;;;5051231;28;20412;-75
2022/07/12 04:23:46;;;;;;;10.67;9.67;;;;;;;;;;5050624;28;20409;-75
2022/07/12 04:26:12;;;;;;;10.23;9.10;;;;;;;;;;5049761;28;20437;-75
2022/07/12 04:28:38;;;;;;;11.60;10.40;;;;;;;;;;5051271;28;20481;-75
2022/07/12 04:31:04;;;;;;;11.68;10.50;;;;;;;;;;5050986;28;20416;-75
2022/07/12 04:33:30;;;;;;;10.47;9.37;;;;;;;;;;5050630;28;20345;-74
2022/07/12 04:35:56;;;;;;;11.90;8.93;;;;;;;;;;5051008;28;20467;-75
2022/07/12 04:38:22;;;;;;;11.30;10.03;;;;;;;;;;5049827;28;20404;-75
2022/07/12 04:40:48;;;;;;;13.43;10.03;;;;;;;;;;5051173;28;20404;-75
2022/07/12 04:43:14;;;;;;;13.03;10.90;;;;;;;;;;5050264;28;20408;-74
2022/07/12 04:45:43;;;;;;;11.07;9.83;;;;;;;;;;5050739;28;20474;-75
2022/07/12 04:48:09;;;;;;;17.43;9.33;;;;;;;;;;5050936;28;20508;-74
2022/07/12 04:50:35;;;;;;;14.00;9.90;;;;;;;;;;5050883;28;20413;-75
2022/07/12 04:53:02;;;;;;;11.10;9.97;;;;;;;;;;5050401;28;20419;-75
2022/07/12 04:55:28;;;;;;;16.27;12.03;;;;;;;;;;5050543;28;20486;-75
2022/07/12 04:57:54;;;;;;;13.10;11.17;;;;;;;;;;5050547;28;20418;-78
2022/07/12 05:00:20;;;;;;;16.70;12.87;;;;;;;;;;5050618;28;20413;-74
2022/07/12 05:02:46;;;;;;;16.00;14.30;;;;;;;;;;5050794;28;20461;-75
2022/07/12 05:05:12;;;;;;;18.10;14.03;;;;;;;;;;5050532;28;20996;-74
2022/07/12 05:07:38;;;;;;;16.47;14.77;;;;;;;;;;5050421;28;20786;-75
2022/07/12 05:10:04;;;;;;;16.23;14.53;;;;;;;;;;5050530;28;20438;-74
2022/07/12 05:12:30;;;;;;;19.80;16.33;;;;;;;;;;5050513;28;20424;-75
2022/07/12 05:14:56;;;;;;;18.50;16.50;;;;;;;;;;5049979;28;20788;-74
2022/07/12 05:17:22;;;;;;;19.30;16.20;;;;;;;;;;5049138;28;20425;-75
2022/07/12 05:19:48;;;;;;;18.40;15.43;;;;;;;;;;5050387;28;21142;-75
2022/07/12 05:22:14;;;;;;;23.13;16.80;;;;;;;;;;5050088;28;20456;-75
2022/07/12 05:24:40;;;;;;;18.50;16.60;;;;;;;;;;5049778;28;20899;-75
2022/07/12 05:27:06;;;;;;;16.07;14.37;;;;;;;;;;5050271;28;20437;-74
2022/07/12 05:29:32;;;;;;;15.90;14.23;;;;;;;;;;5050286;28;20420;-75
2022/07/12 05:32:01;;;;;;;15.63;13.73;;;;;;;;;;5050057;28;20440;-75
2022/07/12 05:34:27;;;;;;;17.27;15.47;;;;;;;;;;5049644;28;20459;-75
2022/07/12 05:36:53;;;;;;;16.07;14.37;;;;;;;;;;5048922;28;20528;-75
2022/07/12 05:39:19;;;;;;;16.63;14.63;;;;;;;;;;5050117;28;20421;-76
2022/07/12 05:41:46;;;;;;;18.07;14.83;;;;;;;;;;5050162;28;20408;-74
2022/07/12 05:44:12;;;;;;;18.73;14.70;;;;;;;;;;5049572;28;20492;-75
2022/07/12 05:46:40;;;;;;;16.77;14.97;;;;;;;;;;5049932;28;20436;-74
2022/07/12 05:49:07;;;;;;;18.70;15.97;;;;;;;;;;5049914;28;20413;-74
2022/07/12 05:54:17;;;;;;;19.20;16.00;;;;;;;;;;5049002;28;20432;-75
2022/07/12 05:56:43;;;;;;;16.73;14.93;;;;;;;;;;5049891;28;20849;-75
2022/07/12 05:59:09;;;;;;;14.80;13.30;;;;;;;;;;5049716;28;20405;-75
2022/07/12 06:01:35;;;;;;;17.83;16.03;;;;;;;;;;5049954;28;20453;-75
2022/07/12 06:04:01;;;;;;;19.00;15.80;;;;;;;;;;5049464;28;20872;-75
2022/07/12 06:06:27;;;;;;;15.97;13.67;;;;;;;;;;5049593;28;20428;-75
2022/07/12 06:08:53;;;;;;;20.93;15.10;;;;;;;;;;5049748;28;20412;-75
2022/07/12 06:11:19;;;;;;;17.10;15.40;;;;;;;;;;5049633;28;20900;-75
2022/07/12 06:13:45;;;;;;;18.43;15.10;;;;;;;;;;5049256;28;20495;-75
2022/07/12 06:16:11;;;;;;;17.63;15.73;;;;;;;;;;5049432;28;20512;-75
2022/07/12 06:18:38;;;;;;;16.07;13.60;;;;;;;;;;5049464;28;20408;-75
2022/07/12 06:21:04;;;;;;;17.87;12.40;;;;;;;;;;5049410;28;20415;-76
2022/07/12 06:23:30;;;;;;;16.30;14.60;;;;;;;;;;5047883;28;20416;-75
2022/07/12 06:25:56;;;;;;;19.07;13.97;;;;;;;;;;5049362;28;20491;-74
2022/07/12 06:28:23;;;;;;;19.40;13.70;;;;;;;;;;5049324;28;20470;-76
2022/07/12 06:30:49;;;;;;;22.57;15.47;;;;;;;;;;5049211;28;20425;-75
2022/07/12 06:33:15;;;;;;;16.50;13.47;;;;;;;;;;5048957;28;20468;-75
2022/07/12 06:35:41;;;;;;;18.13;14.80;;;;;;;;;;5049194;28;20571;-75
2022/07/12 06:38:07;;;;;;;16.97;15.17;;;;;;;;;;5049268;28;20416;-75
2022/07/12 06:40:33;;;;;;;18.00;16.10;;;;;;;;;;5049490;28;20907;-77
2022/07/12 06:42:59;;;;;;;19.27;15.23;;;;;;;;;;5048845;28;20390;-74
2022/07/12 06:45:25;;;;;;;17.17;15.23;;;;;;;;;;5049150;28;20443;-75
2022/07/12 06:47:51;;;;;;;21.07;15.30;;;;;;;;;;5049176;28;20425;-75
2022/07/12 06:50:18;;;;;;;17.50;14.40;;;;;;;;;;5049305;28;20447;-75
2022/07/12 06:52:43;;;;;;;16.03;13.47;;;;;;;;;;5049095;28;20961;-75
2022/07/12 06:55:10;;;;;;;18.07;15.43;;;;;;;;;;5048676;28;20442;-76
2022/07/12 06:57:37;;;;;;;16.73;14.37;;;;;;;;;;5049065;28;20383;-74
2022/07/12 07:00:04;;;;;;;21.27;14.87;;;;;;;;;;5049107;28;20380;-75
2022/07/12 07:02:30;;;;;;;17.27;14.40;;;;;;;;;;5049071;28;20408;-75
2022/07/12 07:04:56;;;;;;;17.53;14.03;;;;;;;;;;5049822;28;20405;-74
2022/07/12 07:07:22;;;;;;;14.23;12.70;;;;;;;;;;5052474;28;20503;-75
2022/07/12 07:09:48;;;;;;;15.30;13.80;;;;;;;;;;5052358;28;20758;-74
2022/07/12 07:12:14;;;;;;;15.47;13.83;;;;;;;;;;5052397;28;20424;-74
2022/07/12 07:14:40;;;;;;;15.50;13.90;;;;;;;;;;5051951;28;20434;-76
2022/07/12 07:17:06;;;;;;;15.07;13.60;;;;;;;;;;5052371;28;20478;-76
2022/07/12 07:19:32;;;;;;;15.20;12.50;;;;;;;;;;5052176;28;20428;-76
2022/07/12 07:21:58;;;;;;;12.93;11.67;;;;;;;;;;5052140;28;20783;-77
2022/07/12 07:24:24;;;;;;;12.53;11.33;;;;;;;;;;5051869;28;20380;-76
2022/07/12 07:26:51;;;;;;;11.80;10.60;;;;;;;;;;5051948;28;20433;-76
2022/07/12 07:32:01;;;;;;;11.67;10.03;;;;;;;;;;5052169;28;20867;-75
2022/07/12 07:34:27;;;;;;;9.87;8.87;;;;;;;;;;5051523;28;20379;-76
2022/07/12 07:36:53;;;;;;;10.53;8.80;;;;;;;;;;5051926;28;20399;-76
2022/07/12 07:39:19;;;;;;;8.73;7.93;;;;;;;;;;5050647;28;20413;-76
2022/07/12 07:41:45;;;;;;;10.83;9.77;;;;;;;;;;5051794;28;20822;-75
2022/07/12 07:44:11;;;;;;;10.87;9.77;;;;;;;;;;5051394;28;20402;-75
2022/07/12 07:46:37;;;;;;;11.00;7.57;;;;;;;;;;5051829;28;20436;-75
2022/07/12 07:49:03;;;;;;;8.77;7.97;;;;;;;;;;5051731;28;20412;-76
2022/07/12 07:51:30;;;;;;;10.23;8.27;;;;;;;;;;5051515;28;20779;-74
2022/07/12 07:53:56;;;;;;;7.80;7.10;;;;;;;;;;5051265;28;20416;-76
2022/07/12 07:56:22;;;;;;;8.50;7.70;;;;;;;;;;5051367;28;20471;-75
2022/07/12 07:58:48;;;;;;;7.90;7.10;;;;;;;;;;5051618;28;20764;-76
2022/07/12 08:01:14;;;;;;;8.20;7.50;;;;;;;;;;5051671;28;20546;-75
2022/07/12 08:03:40;;;;;;;8.20;7.50;;;;;;;;;;5051282;28;20432;-74
2022/07/12 08:06:06;;;;;;;8.33;7.53;;;;;;;;;;5051452;28;20403;-75
2022/07/12 08:08:32;;;;;;;8.80;7.90;;;;;;;;;;5051409;28;20482;-75
2022/07/12 08:10:58;;;;;;;8.17;7.33;;;;;;;;;;5051077;28;20891;-76
2022/07/12 08:13:24;;;;;;;8.77;7.97;;;;;;;;;;5050688;28;20602;-76
2022/07/12 08:15:50;;;;;;;8.87;8.07;;;;;;;;;;5050387;28;20480;-76
2022/07/12 08:18:16;;;;;;;9.03;8.10;;;;;;;;;;5050601;28;20424;-76
2022/07/12 08:20:42;;;;;;;10.53;9.63;;;;;;;;;;5050949;28;20901;-76
2022/07/12 08:23:08;;;;;;;11.30;9.27;;;;;;;;;;5050692;28;20413;-77
2022/07/12 08:25:34;;;;;;;12.07;9.70;;;;;;;;;;5050703;28;20506;-76
2022/07/12 08:28:00;;;;;;;10.20;9.30;;;;;;;;;;5050857;28;20423;-75
2022/07/12 08:30:27;;;;;;;7.77;7.07;;;;;;;;;;5051117;28;20996;-75
2022/07/12 08:32:54;;;;;;;6.63;6.00;;;;;;;;;;5050386;28;20477;-76
2022/07/12 08:35:20;;;;;;;7.30;5.93;;;;;;;;;;5050879;28;20613;-76
2022/07/12 08:37:46;;;;;;;8.17;7.37;;;;;;;;;;5050945;28;20491;-76
2022/07/12 08:40:12;;;;;;;7.87;7.10;;;;;;;;;;5050962;28;20842;-76
2022/07/12 08:42:42;;;;;;;5.50;5.00;;;;;;;;;;5050959;28;20420;-75
2022/07/12 08:45:08;;;;;;;6.17;5.67;;;;;;;;;;5050350;28;20960;-75
2022/07/12 08:47:34;;;;;;;7.33;6.67;;;;;;;;;;5051011;28;20432;-76
2022/07/12 08:50:10;;;;;;;6.67;6.17;;;;;;;;;;5051009;28;20416;-75
2022/07/12 08:52:39;;;;;;;5.93;4.73;;;;;;;;;;5050890;28;20773;-75
2022/07/12 08:55:26;;;;;;;7.17;4.50;;;;;;;;;;5050292;28;20467;-77
2022/07/12 08:57:56;;;;;;;6.13;5.73;;;;;;;;;;5049156;28;20419;-75
2022/07/12 09:00:22;;;;;;;6.33;5.80;;;;;;;;;;5050573;28;20986;-76
2022/07/12 09:02:55;;;;;;;5.23;4.73;;;;;;;;;;5050498;28;20414;-76
2022/07/12 09:05:24;;;;;;;6.13;3.97;;;;;;;;;;5050545;28;20467;-75
2022/07/12 09:07:50;;;;;;;5.47;4.97;;;;;;;;;;5050360;28;20452;-76
2022/07/12 09:10:16;;;;;;;5.73;5.23;;;;;;;;;;5050447;28;20469;-74
2022/07/12 09:12:43;;;;;;;3.63;3.33;;;;;;;;;;5050639;28;20780;-75
2022/07/12 09:15:16;;;;;;;3.80;3.50;;;;;;;;;;5049968;28;20479;-73
2022/07/12 09:17:46;;;;;;;7.57;6.87;;;;;;;;;;5049235;28;20417;-74
2022/07/12 09:20:13;;;;;;;7.23;6.63;;;;;;;;;;5050244;28;20405;-74
2022/07/12 09:22:47;;;;;;;5.63;5.03;;;;;;;;;;5050455;28;20551;-74
2022/07/12 09:25:18;;;;;;;5.67;5.17;;;;;;;;;;5050017;28;20432;-76
2022/07/12 09:27:48;;;;;;;9.10;6.57;;;;;;;;;;5049486;28;20507;-75
2022/07/12 09:30:14;;;;;;;5.90;5.40;;;;;;;;;;5049779;28;20405;-74
2022/07/12 09:38:28;;;;;;;7.00;6.40;;;;;;;;;;5049666;28;20465;-74
2022/07/12 09:40:55;;;;;;;7.67;5.40;;;;;;;;;;5050229;28;20501;-73
2022/07/12 09:43:22;;;;;;;5.83;5.00;;;;;;;;;;5049962;28;20494;-73
2022/07/12 09:45:49;;;;;;;4.50;4.10;;;;;;;;;;5049969;28;20436;-73
2022/07/12 09:48:15;;;;;;;5.90;4.87;;;;;;;;;;5049716;28;20908;-73
2022/07/12 09:50:42;;;;;;;7.00;4.23;;;;;;;;;;5050201;28;20405;-74
2022/07/12 09:53:10;;;;;;;4.90;4.23;;;;;;;;;;5049486;28;20778;-72
2022/07/12 09:55:38;;;;;;;4.80;4.33;;;;;;;;;;5049606;28;21014;-72
2022/07/12 09:58:05;;;;;;;3.93;3.60;;;;;;;;;;5049725;27;20952;-74
2022/07/12 10:00:31;;;;;;;5.03;4.53;;;;;;;;;;5049799;28;20439;-74
2022/07/12 10:02:58;;;;;;;5.40;4.43;;;;;;;;;;5049614;28;20412;-74
2022/07/12 10:05:25;;;;;;;4.23;3.83;;;;;;;;;;5049775;28;20433;-74
2022/07/12 10:07:52;;;;;;;7.53;4.27;;;;;;;;;;5049613;28;20415;-74
2022/07/12 10:10:18;;;;;;;9.87;4.00;;;;;;;;;;5049668;28;20913;-74
2022/07/12 10:12:44;;;;;;;4.57;3.97;;;;;;;;;;5048266;28;20519;-74
2022/07/12 10:15:18;;;;;;;4.07;3.77;;;;;;;;;;5049267;28;20470;-74
2022/07/12 10:18:03;;;;;;;5.33;4.83;;;;;;;;;;5048175;28;20504;-73
2022/07/12 10:20:29;;;;;;;5.77;5.00;;;;;;;;;;5049396;28;20920;-75
2022/07/12 10:22:56;;;;;;;5.17;4.70;;;;;;;;;;5049070;28;20440;-74
2022/07/12 10:25:34;;;;;;;4.50;3.93;;;;;;;;;;5049283;28;20455;-73
2022/07/12 10:28:01;;;;;;;4.10;3.80;;;;;;;;;;5049429;28;20496;-73
2022/07/12 10:30:27;;;;;;;6.37;3.40;;;;;;;;;;5049241;28;20411;-74
2022/07/12 10:32:58;;;;;;;3.63;2.87;;;;;;;;;;5048981;28;20437;-75
2022/07/12 10:35:26;;;;;;;3.00;2.73;;;;;;;;;;5049566;28;20467;-73
2022/07/12 10:38:10;;;;;;;6.00;3.57;;;;;;;;;;5049322;28;20916;-73
2022/07/12 10:40:36;;;;;;;3.40;3.10;;;;;;;;;;5051506;28;20487;-74
2022/07/12 10:43:03;;;;;;;1.80;1.40;;;;;;;;;;5052569;28;20779;-73
2022/07/12 10:45:50;;;;;;;1.90;1.77;;;;;;;;;;5052831;28;20420;-73
2022/07/12 10:48:16;;;;;;;1.60;1.27;;;;;;;;;;5052861;28;20418;-73
2022/07/12 10:50:45;;;;;;;5.43;1.97;;;;;;;;;;5052988;28;20400;-73
2022/07/12 10:53:21;;;;;;;1.80;1.67;;;;;;;;;;5051256;28;20416;-75
2022/07/12 10:56:05;;;;;;;3.40;2.23;;;;;;;;;;5051495;28;20466;-73
2022/07/12 10:58:32;;;;;;;2.67;2.47;;;;;;;;;;5051579;28;20412;-73
2022/07/12 11:01:08;;;;;;;2.83;2.30;;;;;;;;;;5052328;28;20409;-73
2022/07/12 11:03:42;;;;;;;3.00;2.30;;;;;;;;;;5052395;28;20396;-73
2022/07/12 11:06:10;;;;;;;3.67;2.30;;;;;;;;;;5052515;28;20492;-72
2022/07/12 11:08:51;;;;;;;3.90;2.17;;;;;;;;;;5052329;28;20904;-74
2022/07/12 11:11:18;;;;;;;2.80;2.47;;;;;;;;;;5052464;28;20440;-73
2022/07/12 11:13:44;;;;;;;4.17;3.10;;;;;;;;;;5052139;28;20454;-73
2022/07/12 11:16:11;;;;;;;2.90;2.47;;;;;;;;;;5052270;28;20546;-73
2022/07/12 11:18:37;;;;;;;2.47;2.20;;;;;;;;;;5052685;28;20494;-73
2022/07/12 11:21:04;;;;;;;2.73;2.50;;;;;;;;;;5052159;28;20432;-73
2022/07/12 11:23:30;;;;;;;1.83;1.67;;;;;;;;;;5051925;28;20767;-73
2022/07/12 11:25:57;;;;;;;3.87;1.80;;;;;;;;;;5050889;28;20974;-74
2022/07/12 11:28:24;;;;;;;2.83;1.60;;;;;;;;;;5052244;28;20413;-72
2022/07/12 11:30:54;;;;;;;2.57;1.80;;;;;;;;;;5052117;28;20405;-74
2022/07/12 11:33:25;;;;;;;4.60;2.17;;;;;;;;;;5051616;28;20793;-73
2022/07/12 11:35:51;;;;;;;2.80;1.90;;;;;;;;;;5050487;28;20472;-73
2022/07/12 11:38:24;;;;;;;5.50;2.03;;;;;;;;;;5051918;28;20412;-74
2022/07/12 11:40:56;;;;;;;2.13;1.73;;;;;;;;;;5052200;28;20397;-73
2022/07/12 11:43:22;;;;;;;3.00;2.17;;;;;;;;;;5050224;28;20421;-73
2022/07/12 11:45:48;;;;;;;2.23;1.93;;;;;;;;;;5051806;28;20523;-73
2022/07/12 11:48:15;;;;;;;4.30;2.20;;;;;;;;;;5051833;28;20412;-73
2022/07/12 11:50:44;;;;;;;3.90;2.30;;;;;;;;;;5051449;28;20445;-72
2022/07/12 11:53:17;;;;;;;1.90;1.80;;;;;;;;;;5051069;28;20417;-73
2022/07/12 11:55:44;;;;;;;2.40;2.20;;;;;;;;;;5051726;28;21055;-73
2022/07/12 11:58:10;;;;;;;6.00;2.57;;;;;;;;;;5051517;28;20448;-74
2022/07/12 12:00:36;;;;;;;3.30;2.47;;;;;;;;;;5051575;28;20433;-75
2022/07/12 12:03:02;;;;;;;2.63;2.20;;;;;;;;;;5051143;28;20416;-73
2022/07/12 12:05:29;;;;;;;2.33;2.10;;;;;;;;;;5051463;28;20429;-73
2022/07/12 12:07:55;;;;;;;2.67;2.40;;;;;;;;;;5051781;28;20452;-72
2022/07/12 12:10:21;;;;;;;3.17;2.97;;;;;;;;;;5051578;28;20413;-72
2022/07/12 12:12:48;;;;;;;3.43;3.03;;;;;;;;;;5051649;28;20499;-74
2022/07/12 12:15:18;;;;;;;2.40;2.13;;;;;;;;;;5051071;28;20954;-73
2022/07/12 12:17:51;;;;;;;2.50;2.30;;;;;;;;;;5051457;28;20951;-73
2022/07/12 12:20:19;;;;;;;3.33;2.50;;;;;;;;;;5051466;28;20761;-73
2022/07/12 12:22:46;;;;;;;3.37;2.60;;;;;;;;;;5051311;28;20409;-74
2022/07/12 12:25:14;;;;;;;2.53;2.33;;;;;;;;;;5049582;28;20433;-73
2022/07/12 12:27:47;;;;;;;2.20;2.00;;;;;;;;;;5051115;28;20415;-72
2022/07/12 12:30:14;;;;;;;2.40;2.20;;;;;;;;;;5051406;28;20801;-73
2022/07/12 12:32:46;;;;;;;2.60;2.40;;;;;;;;;;5051021;28;20439;-73
2022/07/12 12:35:12;;;;;;;5.33;2.77;;;;;;;;;;5050634;28;20472;-74
2022/07/12 12:37:40;;;;;;;3.20;2.63;;;;;;;;;;5049723;28;20827;-73
2022/07/12 12:40:06;;;;;;;3.80;2.40;;;;;;;;;;5051177;28;20405;-74
2022/07/12 12:42:32;;;;;;;4.63;2.40;;;;;;;;;;5051067;28;20441;-73
2022/07/12 12:44:58;;;;;;;3.27;2.73;;;;;;;;;;5050574;28;20531;-74
2022/07/12 12:47:30;;;;;;;2.47;2.17;;;;;;;;;;5051173;28;20912;-73
2022/07/12 12:50:00;;;;;;;5.70;2.90;;;;;;;;;;5050879;28;20421;-73
2022/07/12 12:52:26;;;;;;;2.63;2.13;;;;;;;;;;5051100;28;20409;-73
2022/07/12 12:54:52;;;;;;;4.07;1.80;;;;;;;;;;5050625;28;20509;-73
2022/07/12 12:57:18;;;;;;;2.80;2.20;;;;;;;;;;5050294;28;20405;-73
2022/07/12 12:59:45;;;;;;;2.50;2.30;;;;;;;;;;5050918;28;20405;-74
2022/07/12 13:02:11;;;;;;;2.33;1.60;;;;;;;;;;5049353;28;20956;-74
2022/07/12 13:04:37;;;;;;;2.17;1.90;;;;;;;;;;5050304;28;20424;-73
2022/07/12 13:07:05;;;;;;;5.50;2.37;;;;;;;;;;5049773;28;20781;-73
2022/07/12 13:09:31;;;;;;;3.10;2.90;;;;;;;;;;5050073;28;20429;-73
2022/07/12 13:11:58;;;;;;;2.67;1.90;;;;;;;;;;5050613;28;20901;-74
2022/07/12 13:14:24;;;;;;;2.53;1.83;;;;;;;;;;5050310;28;20420;-73
2022/07/12 13:16:50;;;;;;;2.13;1.93;;;;;;;;;;5050449;28;20468;-74
2022/07/12 13:19:16;;;;;;;2.40;2.20;;;;;;;;;;5048948;28;20416;-74
2022/07/12 13:21:42;;;;;;;2.30;2.10;;;;;;;;;;5049233;28;20576;-74
2022/07/12 13:24:08;;;;;;;2.20;1.90;;;;;;;;;;5050057;28;20408;-73
2022/07/12 13:26:34;;;;;;;2.60;2.23;;;;;;;;;;5050371;28;20452;-74
2022/07/12 13:29:01;;;;;;;2.20;2.00;;;;;;;;;;5050394;28;20524;-74
2022/07/12 13:31:27;;;;;;;2.27;2.07;;;;;;;;;;5050017;28;20500;-74
2022/07/12 13:33:53;;;;;;;6.53;2.60;;;;;;;;;;5049696;28;20493;-74
2022/07/12 13:36:21;;;;;;;3.50;1.90;;;;;;;;;;5050141;28;20552;-74
2022/07/12 13:38:47;;;;;;;2.47;2.27;;;;;;;;;;5050183;28;20404;-74
2022/07/12 13:41:14;;;;;;;2.20;2.00;;;;;;;;;;5049933;28;20409;-73
2022/07/12 13:43:40;;;;;;;3.50;2.03;;;;;;;;;;5049679;28;20492;-74
2022/07/12 13:46:06;;;;;;;2.97;1.80;;;;;;;;;;5048459;28;20515;-74
2022/07/12 13:48:33;;;;;;;3.10;1.80;;;;;;;;;;5050953;27;20484;-75
2022/07/12 13:50:59;;;;;;;1.67;1.57;;;;;;;;;;5049985;28;20496;-74
2022/07/12 13:53:25;;;;;;;1.87;1.40;;;;;;;;;;5048539;28;20464;-74
2022/07/12 13:55:51;;;;;;;3.37;1.83;;;;;;;;;;5049645;28;20878;-75
2022/07/12 13:58:17;;;;;;;2.60;1.37;;;;;;;;;;5049760;28;20404;-74
2022/07/12 14:00:44;;;;;;;2.40;1.77;;;;;;;;;;5049814;28;20405;-75
2022/07/12 14:03:10;;;;;;;2.10;1.50;;;;;;;;;;5049695;28;20408;-73
2022/07/12 14:05:37;;;;;;;1.70;1.40;;;;;;;;;;5049854;28;20456;-74
2022/07/12 14:08:03;;;;;;;3.57;1.97;;;;;;;;;;5049567;28;20482;-74
2022/07/12 14:10:29;;;;;;;1.30;1.20;;;;;;;;;;5048225;28;20409;-74
2022/07/12 14:12:55;;;;;;;2.67;1.53;;;;;;;;;;5048323;28;20427;-74
2022/07/12 14:15:36;;;;;;;2.00;1.47;;;;;;;;;;5051435;28;20542;-74
2022/07/12 14:18:04;;;;;;;1.73;1.57;;;;;;;;;;5053454;28;20415;-74
2022/07/12 14:20:30;;;;;;;3.20;1.40;;;;;;;;;;5053316;28;20476;-74
2022/07/12 14:22:56;;;;;;;3.20;1.80;;;;;;;;;;5052986;28;20420;-75
2022/07/12 14:25:22;;;;;;;1.63;1.50;;;;;;;;;;5052927;28;20424;-76
2022/07/12 14:27:48;;;;;;;2.63;1.80;;;;;;;;;;5053014;28;20473;-74
2022/07/12 14:30:14;;;;;;;1.80;1.70;;;;;;;;;;5052881;28;20404;-75
2022/07/12 14:32:41;;;;;;;1.70;1.43;;;;;;;;;;5051813;28;20444;-74
2022/07/12 14:35:08;;;;;;;3.87;2.00;;;;;;;;;;5051101;28;20515;-74
2022/07/12 14:37:34;;;;;;;3.03;1.40;;;;;;;;;;5052525;27;20490;-74
2022/07/12 14:40:01;;;;;;;1.90;1.30;;;;;;;;;;5052196;28;20420;-74
2022/07/12 14:42:27;;;;;;;1.73;1.63;;;;;;;;;;5052198;28;20426;-74
2022/07/12 14:44:54;;;;;;;1.57;1.43;;;;;;;;;;5051771;28;20456;-75
2022/07/12 14:47:20;;;;;;;2.07;1.40;;;;;;;;;;5052786;28;20413;-75
2022/07/12 14:49:46;;;;;;;1.60;1.50;;;;;;;;;;5052425;27;20456;-74